Time;durP1;ratioP1;P1;durP2;ratioP2;P2;SDS_P1;SDS_P2;PMS_P1;PMS_P2;Temp;Humidity;BMP_temperature;BMP_pressure;BME280_temperature;BME280_humidity;BME280_pressure;Samples;Min_cycle;Max_cycle;Signal;HPM_P1;HPM_P2
2022/08/15 00:00:26;;;;;;;3.42;2.47;;;;;;;24.34;36.38;99546.34;5076169;28;20024;-47
2022/08/15 00:02:53;;;;;;;4.30;2.83;;;;;;;24.29;36.84;99547.28;5041648;28;20603;-48
2022/08/15 00:05:22;;;;;;;4.75;2.90;;;;;;;24.26;36.61;99553.38;5075454;28;20032;-52
2022/08/15 00:07:48;;;;;;;3.67;2.85;;;;;;;24.20;36.71;99546.38;5074503;28;20035;-50
2022/08/15 00:10:17;;;;;;;3.72;2.90;;;;;;;24.17;36.79;99541.50;5057724;28;20032;-49
2022/08/15 00:12:43;;;;;;;3.90;2.85;;;;;;;24.08;37.22;99538.66;5074635;28;20028;-49
2022/08/15 00:15:13;;;;;;;2.83;2.50;;;;;;;24.06;37.66;99535.41;5075271;28;20034;-48
2022/08/15 00:17:40;;;;;;;3.33;2.78;;;;;;;24.08;37.62;99540.59;5075556;28;20431;-50
2022/08/15 00:20:10;;;;;;;2.88;2.67;;;;;;;24.03;37.69;99543.44;5075684;28;20032;-52
2022/08/15 00:22:43;;;;;;;3.20;2.90;;;;;;;23.87;38.54;99521.00;5075290;28;20020;-50
2022/08/15 00:25:09;;;;;;;2.50;2.30;;;;;;;23.92;37.77;99540.91;5057419;28;20376;-51
2022/08/15 00:27:35;;;;;;;3.20;2.63;;;;;;;23.90;38.06;99532.19;5057165;28;20024;-54
2022/08/15 00:30:03;;;;;;;7.22;3.67;;;;;;;23.85;39.31;99532.28;5073803;28;20032;-50
2022/08/15 00:32:34;;;;;;;2.83;2.63;;;;;;;23.72;38.15;99530.31;5074837;28;20033;-50
2022/08/15 00:35:01;;;;;;;2.83;2.53;;;;;;;23.63;38.13;99518.44;5057324;28;20031;-53
2022/08/15 00:37:27;;;;;;;2.78;2.50;;;;;;;23.73;38.21;99535.47;5075447;28;20047;-49
2022/08/15 00:39:53;;;;;;;3.90;2.60;;;;;;;23.66;38.46;99528.78;5075043;28;20025;-49
2022/08/15 00:42:23;;;;;;;4.85;3.10;;;;;;;23.58;39.31;99533.03;5075197;28;20035;-50
2022/08/15 00:44:49;;;;;;;4.38;3.70;;;;;;;23.45;39.74;99534.66;5075236;28;20373;-49
2022/08/15 00:47:18;;;;;;;4.15;2.60;;;;;;;23.38;39.20;99531.50;5075282;28;20032;-51
2022/08/15 00:49:45;;;;;;;6.47;3.60;;;;;;;23.32;40.38;99539.00;5073878;28;20082;-50
2022/08/15 00:52:22;;;;;;;3.22;3.03;;;;;;;23.28;41.21;99527.00;5073927;28;20028;-49
2022/08/15 00:54:54;;;;;;;4.05;2.78;;;;;;;23.22;39.61;99519.19;5074546;28;20483;-50
2022/08/15 00:57:24;;;;;;;3.88;2.75;;;;;;;23.25;40.59;99524.88;5073309;28;20051;-49
2022/08/15 00:59:54;;;;;;;3.50;3.20;;;;;;;23.23;39.78;99524.34;5074902;28;20048;-53
2022/08/15 01:02:24;;;;;;;2.97;2.78;;;;;;;23.21;39.09;99518.38;5074924;28;20459;-50
2022/08/15 01:04:51;;;;;;;3.90;3.00;;;;;;;23.23;39.76;99512.59;5075011;28;20034;-49
2022/08/15 01:07:18;;;;;;;2.85;2.60;;;;;;;23.18;39.42;99506.09;5074651;28;20025;-50
2022/08/15 01:09:44;;;;;;;3.30;3.10;;;;;;;23.09;40.09;99501.63;5074574;28;20036;-51
2022/08/15 01:12:17;;;;;;;3.22;2.33;;;;;;;23.11;39.95;99508.41;5074600;28;20039;-49
2022/08/15 01:14:47;;;;;;;3.00;2.80;;;;;;;22.96;39.78;99482.06;5056764;28;20063;-51
2022/08/15 01:17:15;;;;;;;4.55;3.88;;;;;;;22.92;40.59;99502.13;5056311;28;20799;-52
2022/08/15 01:19:45;;;;;;;3.30;3.00;;;;;;;22.97;39.77;99507.53;5056462;28;20032;-51
2022/08/15 01:22:36;;;;;;;4.68;2.60;;;;;;;22.91;40.71;99506.78;5073392;28;20060;-50
2022/08/15 01:25:11;;;;;;;2.75;2.55;;;;;;;22.93;40.13;99507.31;5074325;28;20036;-52
2022/08/15 01:27:42;;;;;;;3.55;2.75;;;;;;;22.89;39.76;99500.00;5074028;28;20044;-49
2022/08/15 01:30:14;;;;;;;3.75;2.80;;;;;;;22.90;39.51;99499.72;5073376;28;20636;-55
2022/08/15 01:32:39;;;;;;;4.07;2.88;;;;;;;22.81;39.42;99488.63;5074545;28;20462;-49
2022/08/15 01:35:06;;;;;;;7.55;3.00;;;;;;;22.87;39.81;99499.50;5074108;28;20119;-49
2022/08/15 01:37:32;;;;;;;7.47;3.17;;;;;;;22.69;40.05;99485.53;5074591;28;20032;-53
2022/08/15 01:40:10;;;;;;;7.57;2.70;;;;;;;22.75;39.88;99494.47;5073755;28;20032;-52
2022/08/15 01:42:41;;;;;;;5.10;2.70;;;;;;;22.69;39.95;99490.19;5073947;28;20028;-51
2022/08/15 01:45:14;;;;;;;3.42;2.65;;;;;;;22.63;40.42;99485.94;5056564;28;20040;-49
2022/08/15 01:48:07;;;;;;;2.63;2.42;;;;;;;22.61;40.79;99489.75;5074374;28;20036;-48
2022/08/15 01:50:40;;;;;;;7.70;3.20;;;;;;;22.42;41.21;99469.81;5073016;28;20052;-49
2022/08/15 01:53:13;;;;;;;2.97;2.78;;;;;;;22.53;40.66;99492.34;5056307;28;20107;-49
2022/08/15 01:56:03;;;;;;;3.17;2.95;;;;;;;22.49;41.99;99485.84;5073916;28;20032;-52
2022/08/15 01:58:30;;;;;;;2.83;2.63;;;;;;;22.41;40.36;99479.13;5073144;28;20035;-48
2022/08/15 02:01:00;;;;;;;3.00;2.80;;;;;;;22.39;40.39;99482.16;5056180;28;20040;-48
2022/08/15 02:03:35;;;;;;;2.80;2.60;;;;;;;22.33;40.53;99468.88;5056697;28;20468;-50
2022/08/15 02:06:04;;;;;;;2.58;2.30;;;;;;;22.32;40.81;99469.97;5058319;28;20047;-49
2022/08/15 02:08:30;;;;;;;2.78;2.58;;;;;;;22.31;40.67;99479.31;5074776;28;20092;-50
2022/08/15 02:10:56;;;;;;;6.30;2.70;;;;;;;22.24;40.92;99474.16;5057251;28;20095;-48
2022/08/15 02:13:23;;;;;;;9.85;2.65;;;;;;;22.18;40.83;99464.41;5075354;28;20032;-48
2022/08/15 02:15:50;;;;;;;3.42;2.40;;;;;;;22.14;41.00;99463.34;5072897;28;20052;-48
2022/08/15 02:18:16;;;;;;;2.42;2.22;;;;;;;22.20;41.15;99473.13;5074001;28;20040;-49
2022/08/15 02:20:42;;;;;;;4.60;2.60;;;;;;;22.15;41.16;99474.00;5073534;28;20029;-52
2022/08/15 02:23:08;;;;;;;3.30;2.40;;;;;;;22.07;41.48;99466.47;5055618;28;20056;-50
2022/08/15 02:25:35;;;;;;;2.60;2.40;;;;;;;22.11;41.29;99466.69;5073314;28;20028;-48
2022/08/15 02:28:01;;;;;;;2.85;2.47;;;;;;;22.08;41.51;99459.88;5073899;28;20115;-52
2022/08/15 02:30:29;;;;;;;3.15;2.92;;;;;;;22.12;41.46;99465.56;5074228;28;20032;-49
2022/08/15 02:32:56;;;;;;;3.70;2.75;;;;;;;22.11;41.78;99469.44;5073726;28;20099;-50
2022/08/15 02:35:22;;;;;;;5.32;3.38;;;;;;;21.96;41.72;99456.78;5072643;28;20108;-52
2022/08/15 02:37:47;;;;;;;3.53;2.83;;;;;;;21.95;41.34;99452.41;5055770;28;20024;-51
2022/08/15 02:40:15;;;;;;;7.70;3.88;;;;;;;21.97;42.01;99464.69;5057972;28;20032;-50
2022/08/15 02:42:42;;;;;;;3.13;2.92;;;;;;;21.96;41.86;99464.97;5058172;28;20021;-51
2022/08/15 02:45:10;;;;;;;3.55;3.25;;;;;;;21.92;41.88;99466.69;5074213;28;20045;-48
2022/08/15 02:47:38;;;;;;;3.20;3.00;;;;;;;21.77;41.91;99443.91;5073118;28;20051;-51
2022/08/15 02:50:07;;;;;;;3.60;3.30;;;;;;;21.81;42.16;99464.06;5055956;28;20048;-48
2022/08/15 02:52:38;;;;;;;3.08;2.78;;;;;;;21.78;42.56;99461.09;5060169;28;20224;-50
2022/08/15 02:55:05;;;;;;;4.03;3.30;;;;;;;21.76;41.88;99458.66;5060360;28;20053;-50
2022/08/15 02:57:32;;;;;;;4.40;3.88;;;;;;;21.69;43.12;99458.19;5078322;28;20035;-50
2022/08/15 02:59:58;;;;;;;3.95;3.65;;;;;;;21.62;42.77;99453.09;5078618;28;20040;-51
2022/08/15 03:02:26;;;;;;;3.47;3.17;;;;;;;21.64;42.33;99453.63;5078426;28;20024;-48
2022/08/15 03:04:51;;;;;;;3.00;2.70;;;;;;;21.60;42.22;99449.03;5076786;28;20028;-49
2022/08/15 03:07:17;;;;;;;4.00;3.70;;;;;;;21.61;42.48;99451.47;5078826;28;20071;-47
2022/08/15 03:09:44;;;;;;;5.18;3.58;;;;;;;21.48;42.51;99432.25;5078519;28;20119;-49
2022/08/15 03:12:14;;;;;;;6.10;4.38;;;;;;;21.57;43.17;99450.44;5078289;28;20103;-47
2022/08/15 03:14:40;;;;;;;4.38;3.78;;;;;;;21.49;42.63;99436.59;5078574;28;20103;-48
2022/08/15 03:17:09;;;;;;;4.20;3.80;;;;;;;21.48;43.15;99452.19;5078683;28;20075;-53
2022/08/15 03:19:37;;;;;;;5.70;3.40;;;;;;;21.39;42.85;99448.41;5079272;28;20075;-48
2022/08/15 03:22:03;;;;;;;3.65;3.35;;;;;;;21.30;42.87;99428.31;5061263;28;20438;-50
2022/08/15 03:24:30;;;;;;;3.55;3.33;;;;;;;21.38;43.29;99444.06;5060188;28;20040;-48
2022/08/15 03:26:56;;;;;;;5.32;4.15;;;;;;;21.33;43.41;99442.19;5061612;28;20033;-48
2022/08/15 03:29:23;;;;;;;3.65;3.35;;;;;;;21.21;43.26;99423.50;5060778;28;20024;-52
2022/08/15 03:31:50;;;;;;;4.35;3.60;;;;;;;21.26;43.30;99428.06;5079808;28;20032;-52
2022/08/15 03:34:19;;;;;;;4.18;3.78;;;;;;;21.26;43.03;99428.88;5063820;28;20024;-50
2022/08/15 03:36:46;;;;;;;3.63;3.33;;;;;;;21.15;43.05;99415.66;5075903;28;20104;-51
2022/08/15 03:39:14;;;;;;;3.90;3.30;;;;;;;21.22;43.40;99427.03;5059230;28;20040;-52
2022/08/15 03:41:41;;;;;;;3.47;2.75;;;;;;;21.15;43.19;99418.38;5076842;28;20043;-52
2022/08/15 03:44:07;;;;;;;3.40;3.10;;;;;;;21.15;43.51;99421.09;5077039;28;20477;-52
2022/08/15 03:46:33;;;;;;;4.13;3.15;;;;;;;21.15;43.66;99424.63;5059575;28;20065;-53
2022/08/15 03:48:59;;;;;;;3.72;3.47;;;;;;;21.11;43.93;99417.34;5059376;28;20052;-52
2022/08/15 03:51:26;;;;;;;4.50;3.78;;;;;;;21.00;44.29;99406.50;5076875;28;20051;-52
2022/08/15 03:53:57;;;;;;;4.38;3.13;;;;;;;21.02;44.00;99412.50;5076711;28;20039;-52
2022/08/15 03:56:26;;;;;;;3.10;2.83;;;;;;;21.00;44.16;99408.44;5043006;28;20060;-49
2022/08/15 03:58:54;;;;;;;4.90;3.13;;;;;;;21.01;44.11;99408.16;5076638;28;20414;-49
2022/08/15 04:01:24;;;;;;;4.53;3.35;;;;;;;20.99;44.42;99407.63;5076315;28;20028;-51
2022/08/15 04:03:51;;;;;;;3.30;3.00;;;;;;;20.94;44.33;99406.88;5077634;28;20039;-51
2022/08/15 04:06:20;;;;;;;4.47;4.07;;;;;;;20.92;45.30;99406.34;5058798;28;20052;-48
2022/08/15 04:08:48;;;;;;;3.30;3.00;;;;;;;20.89;44.38;99404.97;5076134;28;20036;-48
2022/08/15 04:11:15;;;;;;;3.47;3.17;;;;;;;20.91;44.26;99407.44;5059599;28;20025;-53
2022/08/15 04:13:43;;;;;;;4.75;3.80;;;;;;;20.84;45.47;99400.41;5076949;28;20024;-50
2022/08/15 04:16:09;;;;;;;3.55;3.25;;;;;;;20.86;44.45;99406.38;5076586;28;20040;-48
2022/08/15 04:18:36;;;;;;;3.95;3.10;;;;;;;20.80;44.67;99403.97;5058831;28;20028;-49
2022/08/15 04:21:05;;;;;;;5.55;3.33;;;;;;;20.63;45.36;99385.31;5075346;28;20032;-48
2022/08/15 04:23:32;;;;;;;19.63;4.97;;;;;;;20.65;45.83;99388.56;5076438;28;20024;-50
2022/08/15 04:25:58;;;;;;;10.18;5.38;;;;;;;20.55;46.18;99385.91;5076134;28;20024;-50
2022/08/15 04:28:26;;;;;;;4.63;4.30;;;;;;;20.56;45.30;99387.53;5058372;28;20032;-52
2022/08/15 04:30:52;;;;;;;4.18;3.88;;;;;;;20.52;45.29;99390.00;5076495;28;20036;-51
2022/08/15 04:33:22;;;;;;;5.25;3.80;;;;;;;20.57;46.05;99391.91;5060091;28;20078;-49
2022/08/15 04:35:59;;;;;;;7.85;4.45;;;;;;;20.51;46.22;99391.13;5059773;28;20604;-47
2022/08/15 04:38:25;;;;;;;8.93;4.65;;;;;;;20.48;45.57;99392.50;5079413;28;20025;-47
2022/08/15 04:40:52;;;;;;;4.28;3.70;;;;;;;20.47;45.63;99396.34;5077481;28;20025;-48
2022/08/15 04:43:21;;;;;;;5.25;4.68;;;;;;;20.37;46.82;99395.59;5078167;28;20039;-49
2022/08/15 04:45:48;;;;;;;6.25;5.30;;;;;;;20.27;46.88;99391.84;5058915;28;20048;-52
2022/08/15 04:48:15;;;;;;;5.03;4.50;;;;;;;20.33;45.80;99392.63;5059831;28;20039;-50
2022/08/15 04:50:44;;;;;;;4.18;3.78;;;;;;;20.29;46.11;99381.47;5077862;28;20131;-49
2022/08/15 04:53:12;;;;;;;5.60;3.60;;;;;;;20.35;45.75;99397.81;5058640;28;20361;-49
2022/08/15 04:55:43;;;;;;;4.00;3.60;;;;;;;20.35;45.98;99398.59;5076171;28;20032;-51
2022/08/15 04:58:12;;;;;;;5.10;3.97;;;;;;;20.34;47.30;99401.63;5076210;28;20085;-50
2022/08/15 05:00:43;;;;;;;7.30;4.72;;;;;;;20.23;46.36;99390.81;5075207;28;20024;-50
2022/08/15 05:03:16;;;;;;;7.75;4.72;;;;;;;20.20;47.82;99388.63;5041025;28;20033;-49
2022/08/15 05:05:45;;;;;;;3.85;3.45;;;;;;;20.27;46.25;99389.13;5075790;28;20024;-50
2022/08/15 05:08:11;;;;;;;7.00;4.07;;;;;;;20.26;46.91;99389.41;5057608;28;20037;-51
2022/08/15 05:10:39;;;;;;;5.80;3.50;;;;;;;20.24;45.91;99383.44;5057676;28;20095;-49
2022/08/15 05:13:11;;;;;;;3.63;3.30;;;;;;;20.28;46.76;99385.31;5075171;28;20376;-51
2022/08/15 05:15:38;;;;;;;6.05;3.25;;;;;;;20.25;46.33;99383.16;5057211;28;20060;-51
2022/08/15 05:18:04;;;;;;;6.60;3.38;;;;;;;20.33;46.11;99389.09;5074045;28;20024;-51
2022/08/15 05:20:30;;;;;;;4.95;3.28;;;;;;;20.27;46.24;99383.69;5075131;28;20404;-53
2022/08/15 05:23:00;;;;;;;3.50;2.72;;;;;;;20.36;46.20;99396.72;5075183;28;20044;-48
2022/08/15 05:25:27;;;;;;;5.35;2.88;;;;;;;20.39;46.24;99399.69;5056774;28;20028;-50
2022/08/15 05:27:53;;;;;;;5.75;3.33;;;;;;;20.30;47.26;99390.50;5057304;28;20029;-53
2022/08/15 05:30:20;;;;;;;5.40;3.53;;;;;;;20.22;46.69;99385.63;5075136;28;20534;-52
2022/08/15 05:32:47;;;;;;;3.67;3.38;;;;;;;20.27;46.98;99391.84;5056839;28;20028;-50
2022/08/15 05:35:13;;;;;;;4.30;3.53;;;;;;;20.27;46.95;99380.94;5057391;28;20036;-51
2022/08/15 05:37:39;;;;;;;7.22;3.05;;;;;;;20.20;46.66;99377.72;5057479;28;20047;-51
2022/08/15 05:40:09;;;;;;;2.47;2.30;;;;;;;20.38;46.58;99391.78;5062786;28;20028;-53
2022/08/15 05:42:49;;;;;;;2.97;2.50;;;;;;;20.41;46.83;99394.75;5076938;28;20055;-49
2022/08/15 05:45:35;;;;;;;4.00;2.83;;;;;;;20.41;47.20;99399.38;5075322;28;20055;-51
2022/08/15 05:48:25;;;;;;;5.38;3.42;;;;;;;20.41;47.78;99400.22;5075385;28;20035;-49
2022/08/15 05:51:02;;;;;;;2.70;2.47;;;;;;;20.33;46.72;99383.66;5075348;28;20044;-48
2022/08/15 05:53:36;;;;;;;3.03;2.72;;;;;;;20.45;46.72;99395.00;5057085;28;20033;-48
2022/08/15 05:56:20;;;;;;;4.32;2.75;;;;;;;20.46;47.61;99399.34;5040801;28;20372;-52
2022/08/15 05:58:56;;;;;;;3.22;2.40;;;;;;;20.48;46.77;99397.16;5057627;28;20388;-53
2022/08/15 06:01:32;;;;;;;2.70;2.50;;;;;;;20.59;46.74;99398.69;5075305;28;20078;-52
2022/08/15 06:04:21;;;;;;;4.15;2.47;;;;;;;20.65;46.84;99400.31;5057787;28;20029;-52
2022/08/15 06:06:50;;;;;;;3.40;2.70;;;;;;;20.67;46.57;99400.00;5075568;28;20424;-51
2022/08/15 06:09:41;;;;;;;3.85;2.67;;;;;;;20.64;47.51;99404.13;5075281;28;20354;-49
2022/08/15 06:12:12;;;;;;;7.63;3.10;;;;;;;20.59;46.53;99385.03;5057207;28;20519;-48
2022/08/15 06:14:44;;;;;;;2.90;2.55;;;;;;;20.66;46.26;99388.28;5074918;28;20058;-47
2022/08/15 06:17:35;;;;;;;6.18;3.25;;;;;;;20.84;46.23;99399.59;5074739;28;20418;-50
2022/08/15 06:20:06;;;;;;;4.10;2.35;;;;;;;20.87;45.66;99382.63;5073953;28;20032;-50
2022/08/15 06:22:54;;;;;;;7.35;2.88;;;;;;;20.94;46.65;99396.75;5073577;28;20047;-48
2022/08/15 06:25:41;;;;;;;2.70;2.50;;;;;;;20.98;46.51;99400.53;5058311;28;20063;-50
2022/08/15 06:28:33;;;;;;;3.58;2.10;;;;;;;21.09;45.60;99393.03;5077015;28;20037;-49
2022/08/15 06:31:18;;;;;;;6.65;2.38;;;;;;;21.08;46.13;99408.63;5063633;28;20032;-49
2022/08/15 06:34:09;;;;;;;4.50;2.25;;;;;;;21.02;45.72;99395.31;5060093;28;20522;-49
2022/08/15 06:37:07;;;;;;;7.78;2.40;;;;;;;21.11;46.33;99409.94;5076819;28;20075;-51
2022/08/15 06:39:50;;;;;;;3.15;2.17;;;;;;;21.02;45.83;99387.94;5076950;28;20064;-50
2022/08/15 06:42:29;;;;;;;4.55;2.60;;;;;;;21.17;45.90;99397.06;5077908;28;20033;-50
2022/08/15 06:44:59;;;;;;;4.28;2.33;;;;;;;21.21;45.54;99398.94;5077311;28;20047;-48
2022/08/15 06:47:28;;;;;;;5.10;2.80;;;;;;;21.25;46.17;99399.97;5077390;28;20384;-51
2022/08/15 06:50:02;;;;;;;4.45;2.60;;;;;;;21.29;45.47;99407.59;5075429;28;20036;-47
2022/08/15 06:52:29;;;;;;;2.67;2.03;;;;;;;21.37;44.87;99396.81;5077631;28;20037;-48
2022/08/15 06:54:57;;;;;;;5.90;2.17;;;;;;;21.40;45.05;99389.97;5077290;28;20265;-50
2022/08/15 06:57:50;;;;;;;4.15;2.58;;;;;;;21.38;45.54;99387.53;5059330;28;20572;-50
2022/08/15 07:00:28;;;;;;;2.20;2.00;;;;;;;21.50;44.61;99400.78;5076049;28;20117;-48
2022/08/15 07:03:05;;;;;;;2.40;2.20;;;;;;;21.61;44.93;99394.09;5058956;28;20044;-52
2022/08/15 07:05:43;;;;;;;3.50;2.10;;;;;;;21.66;44.29;99390.50;5076813;28;20040;-51
2022/08/15 07:08:35;;;;;;;2.80;2.17;;;;;;;21.64;44.17;99382.56;5058826;28;20032;-50
2022/08/15 07:11:22;;;;;;;5.82;1.98;;;;;;;21.82;43.61;99396.53;5075701;28;20470;-49
2022/08/15 07:14:14;;;;;;;2.40;1.77;;;;;;;21.88;43.62;99395.38;5075929;28;20103;-51
2022/08/15 07:17:12;;;;;;;4.50;2.30;;;;;;;21.97;42.93;99400.97;5066211;28;20032;-48
2022/08/15 07:19:38;;;;;;;1.80;1.70;;;;;;;21.99;42.92;99396.84;5075712;28;20039;-48
2022/08/15 07:22:07;;;;;;;3.72;1.92;;;;;;;22.05;42.83;99408.53;5077080;28;20381;-49
2022/08/15 07:24:33;;;;;;;5.13;1.70;;;;;;;22.05;42.57;99403.06;5076345;28;20032;-53
2022/08/15 07:27:14;;;;;;;4.72;1.83;;;;;;;22.12;42.27;99406.25;5058902;28;20111;-52
2022/08/15 07:29:46;;;;;;;2.42;1.90;;;;;;;22.13;42.23;99407.84;5077071;28;20109;-50
2022/08/15 07:32:41;;;;;;;4.35;1.98;;;;;;;22.20;42.02;99405.56;5077520;28;20074;-53
2022/08/15 07:35:29;;;;;;;5.10;2.20;;;;;;;22.29;42.02;99410.38;5046287;28;20481;-49
2022/08/15 07:38:01;;;;;;;2.50;1.80;;;;;;;22.35;41.55;99403.72;5075930;28;20066;-55
2022/08/15 07:40:32;;;;;;;4.25;1.88;;;;;;;22.44;41.69;99407.41;5079901;28;20025;-50
2022/08/15 07:43:01;;;;;;;6.82;2.20;;;;;;;22.50;41.50;99408.94;5079956;28;20032;-49
2022/08/15 07:45:38;;;;;;;6.93;1.90;;;;;;;22.58;41.47;99415.66;5044839;28;20032;-48
2022/08/15 07:48:24;;;;;;;5.25;2.00;;;;;;;22.71;41.74;99414.06;5060335;28;20067;-49
2022/08/15 07:51:22;;;;;;;5.28;1.58;;;;;;;22.79;41.23;99408.72;5076682;28;20096;-49
2022/08/15 07:53:54;;;;;;;5.10;1.70;;;;;;;22.86;40.39;99413.00;5058451;28;20039;-52
2022/08/15 07:56:20;;;;;;;5.70;1.95;;;;;;;22.96;40.65;99412.81;5076053;28;20025;-52
2022/08/15 07:58:51;;;;;;;6.20;1.80;;;;;;;22.92;40.19;99412.59;5076135;28;20111;-51
2022/08/15 08:01:33;;;;;;;5.32;1.58;;;;;;;22.80;40.53;99409.53;5076423;28;20484;-48
2022/08/15 08:04:05;;;;;;;7.20;2.15;;;;;;;22.91;40.50;99410.97;5076491;28;20127;-50
2022/08/15 08:06:37;;;;;;;3.00;1.70;;;;;;;22.88;41.19;99411.59;5058395;28;20020;-48
2022/08/15 08:09:32;;;;;;;2.63;1.58;;;;;;;22.95;41.03;99416.66;5058833;28;20072;-49
2022/08/15 08:12:23;;;;;;;2.85;1.40;;;;;;;23.01;40.47;99407.22;5057627;28;20082;-48
2022/08/15 08:15:02;;;;;;;4.00;1.80;;;;;;;23.26;41.15;99418.84;5076527;28;20061;-50
2022/08/15 08:17:36;;;;;;;6.28;1.90;;;;;;;23.36;40.36;99411.25;5058830;28;20033;-52
2022/08/15 08:20:29;;;;;;;4.43;1.60;;;;;;;23.37;39.71;99401.09;5076914;28;20373;-49
2022/08/15 08:23:14;;;;;;;3.40;2.00;;;;;;;23.61;39.92;99414.59;5077124;28;20489;-48
2022/08/15 08:26:17;;;;;;;6.60;1.90;;;;;;;23.77;39.85;99412.31;5076906;28;20028;-50
2022/08/15 08:28:54;;;;;;;5.20;2.10;;;;;;;23.87;39.56;99416.81;5077316;28;20131;-52
2022/08/15 08:31:56;;;;;;;3.13;1.73;;;;;;;23.99;38.65;99419.00;5076604;28;20035;-49
2022/08/15 08:34:40;;;;;;;4.07;1.70;;;;;;;24.05;38.69;99418.59;5058794;28;20423;-49
2022/08/15 08:37:16;;;;;;;7.78;2.15;;;;;;;24.14;38.65;99410.41;5057869;28;20039;-49
2022/08/15 08:39:54;;;;;;;3.78;1.63;;;;;;;24.30;38.38;99405.38;5077243;28;20054;-50
2022/08/15 08:42:43;;;;;;;5.53;2.08;;;;;;;24.50;37.43;99413.13;5058191;28;20020;-48
2022/08/15 08:45:15;;;;;;;7.65;1.70;;;;;;;24.60;37.33;99400.28;5075664;28;20036;-49
2022/08/15 08:48:11;;;;;;;6.60;1.65;;;;;;;24.83;36.88;99406.56;5057662;28;20047;-50
2022/08/15 08:51:00;;;;;;;2.13;1.58;;;;;;;25.00;36.81;99411.31;5049043;28;20505;-48
2022/08/15 08:53:43;;;;;;;5.40;1.70;;;;;;;25.10;35.91;99398.13;5040021;28;20487;-49
2022/08/15 08:56:16;;;;;;;1.33;1.13;;;;;;;25.31;35.94;99400.34;5039477;28;20055;-49
2022/08/15 08:58:49;;;;;;;6.10;1.33;;;;;;;25.57;35.43;99397.66;5057556;28;20029;-48
2022/08/15 09:01:23;;;;;;;4.78;1.80;;;;;;;25.91;34.57;99401.59;5057345;28;20028;-52
2022/08/15 09:03:56;;;;;;;2.72;1.45;;;;;;;26.71;32.83;99395.78;5036959;28;20032;-50
2022/08/15 09:06:27;;;;;;;2.00;1.40;;;;;;;28.20;31.26;99401.31;5037977;28;20025;-50
2022/08/15 09:09:00;;;;;;;1.60;1.50;;;;;;;29.39;28.63;99399.91;5037123;28;20441;-53
2022/08/15 09:11:32;;;;;;;2.90;1.48;;;;;;;30.40;26.91;99398.22;5054854;28;20036;-50
2022/08/15 09:14:17;;;;;;;3.15;1.25;;;;;;;31.24;26.20;99400.03;5036905;28;20033;-53
2022/08/15 09:16:57;;;;;;;4.28;1.20;;;;;;;31.91;24.98;99393.66;5056359;28;20382;-49
2022/08/15 09:19:29;;;;;;;2.33;1.58;;;;;;;32.40;25.26;99385.56;5056539;28;20021;-51
2022/08/15 09:21:55;;;;;;;1.90;1.13;;;;;;;33.01;24.02;99399.00;5054909;28;20078;-49
2022/08/15 09:24:22;;;;;;;2.45;1.30;;;;;;;33.52;24.30;99395.84;5054735;28;20025;-49
2022/08/15 09:27:01;;;;;;;1.63;1.08;;;;;;;34.04;23.06;99388.63;5054575;28;20037;-50
2022/08/15 09:29:32;;;;;;;3.60;1.50;;;;;;;34.63;23.52;99380.56;5054826;28;20115;-49
2022/08/15 09:32:18;;;;;;;1.50;1.40;;;;;;;34.87;20.67;99379.22;5054967;28;20315;-49
2022/08/15 09:35:07;;;;;;;1.95;1.33;;;;;;;35.26;20.94;99373.19;5054305;28;20041;-48
2022/08/15 09:38:01;;;;;;;4.03;1.25;;;;;;;35.90;19.84;99360.78;5038049;28;20124;-48
2022/08/15 09:40:48;;;;;;;2.63;0.80;;;;;;;35.82;20.40;99378.72;5053521;28;20424;-53
2022/08/15 09:43:43;;;;;;;4.10;1.48;;;;;;;35.69;18.74;99383.84;5053899;28;20040;-49
2022/08/15 09:46:42;;;;;;;7.50;1.10;;;;;;;36.01;19.52;99380.41;5042301;28;20039;-48
2022/08/15 09:49:34;;;;;;;2.90;1.67;;;;;;;36.04;18.00;99383.22;5053671;28;20406;-52
2022/08/15 09:52:18;;;;;;;2.03;1.20;;;;;;;35.65;19.02;99389.38;5059346;28;20060;-49
2022/08/15 09:54:48;;;;;;;4.10;1.40;;;;;;;35.36;19.80;99387.59;5074509;28;20043;-51
2022/08/15 09:57:45;;;;;;;5.35;1.25;;;;;;;35.94;18.27;99389.59;5073809;28;20056;-51
2022/08/15 10:00:24;;;;;;;1.08;0.98;;;;;;;36.77;18.58;99379.47;5073486;28;20071;-49
2022/08/15 10:02:52;;;;;;;1.60;1.10;;;;;;;37.67;19.47;99387.03;5075652;28;20032;-51
2022/08/15 10:05:43;;;;;;;2.30;1.42;;;;;;;38.09;16.44;99394.53;5077223;28;20559;-48
2022/08/15 10:08:13;;;;;;;2.67;1.20;;;;;;;38.43;17.40;99381.94;5074394;28;20040;-50
2022/08/15 10:10:55;;;;;;;6.95;1.65;;;;;;;38.70;16.45;99385.78;5072856;28;20071;-49
2022/08/15 10:13:30;;;;;;;4.18;1.40;;;;;;;38.94;16.25;99385.22;5073808;28;20039;-49
2022/08/15 10:15:56;;;;;;;8.40;1.60;;;;;;;39.11;16.54;99387.09;5073252;28;20037;-53
2022/08/15 10:19:02;;;;;;;1.83;1.10;;;;;;;39.14;15.21;99388.31;5074845;28;20098;-49
2022/08/15 10:21:35;;;;;;;3.05;1.45;;;;;;;39.30;15.83;99386.53;5044035;28;20527;-49
2022/08/15 10:24:07;;;;;;;6.68;2.00;;;;;;;39.34;16.21;99386.50;5075883;28;20036;-48
2022/08/15 10:26:37;;;;;;;6.82;1.25;;;;;;;39.50;15.51;99377.53;5075647;28;20031;-50
2022/08/15 10:29:25;;;;;;;4.30;1.00;;;;;;;39.85;15.18;99392.41;5075553;28;20450;-50
2022/08/15 10:31:59;;;;;;;1.20;1.10;;;;;;;40.14;16.05;99383.63;5076035;28;20481;-48
2022/08/15 10:34:37;;;;;;;3.40;1.50;;;;;;;40.55;14.43;99391.94;5075849;28;20107;-47
2022/08/15 10:37:15;;;;;;;1.90;1.50;;;;;;;39.79;14.94;99396.91;5058363;28;20033;-52
2022/08/15 10:40:07;;;;;;;4.00;1.40;;;;;;;38.50;14.92;99395.91;5076285;28;20377;-51
2022/08/15 10:42:44;;;;;;;1.30;1.15;;;;;;;37.81;16.12;99392.59;5074998;28;20048;-48
2022/08/15 10:45:40;;;;;;;4.78;1.60;;;;;;;39.03;15.39;99394.00;5074797;28;20064;-52
2022/08/15 10:48:34;;;;;;;2.17;1.42;;;;;;;39.88;15.05;99383.94;5059396;28;20131;-50
2022/08/15 10:51:29;;;;;;;5.53;1.70;;;;;;;39.73;14.91;99382.50;5044565;28;20045;-52
2022/08/15 10:54:22;;;;;;;7.70;1.48;;;;;;;37.84;15.50;99391.00;5074248;28;20043;-50
2022/08/15 10:57:02;;;;;;;2.58;1.35;;;;;;;38.67;15.68;99378.22;5059801;28;20330;-49
2022/08/15 11:03:02;;;;;;;4.10;1.75;;;;;;;39.88;14.62;99383.94;4992034;28;20054;-53
2022/08/15 11:05:28;;;;;;;2.45;1.55;;;;;;;40.56;14.93;99371.00;5065560;28;20381;-49
2022/08/15 11:07:55;;;;;;;3.22;1.55;;;;;;;41.12;14.62;99381.78;5072158;28;20024;-52
2022/08/15 11:10:24;;;;;;;5.18;1.40;;;;;;;41.83;13.81;99373.28;5073712;28;20039;-49
2022/08/15 11:12:54;;;;;;;4.75;1.50;;;;;;;42.63;12.75;99384.44;5057147;28;20488;-48
2022/08/15 11:15:27;;;;;;;1.80;1.52;;;;;;;42.36;12.59;99379.00;5076978;28;20039;-52
2022/08/15 11:18:03;;;;;;;4.00;1.70;;;;;;;42.05;12.11;99375.63;5077660;28;20029;-49
2022/08/15 11:20:37;;;;;;;2.95;1.52;;;;;;;42.74;11.85;99375.72;5076694;28;20377;-47
2022/08/15 11:23:03;;;;;;;2.28;1.67;;;;;;;41.46;12.92;99372.34;5075397;28;20028;-48
2022/08/15 11:25:31;;;;;;;1.92;1.42;;;;;;;39.71;14.86;99379.28;5058747;28;20500;-50
2022/08/15 11:28:04;;;;;;;3.33;1.70;;;;;;;40.86;13.71;99374.97;5075635;28;20047;-50
2022/08/15 11:30:35;;;;;;;;;;;;;;;41.85;12.46;99373.63;5059047;28;20051;-47
2022/08/15 11:33:22;;;;;;;3.13;1.63;;;;;;;42.64;11.89;99371.91;5058381;28;20357;-46
2022/08/15 11:36:01;;;;;;;5.88;1.60;;;;;;;43.01;12.24;99375.47;5076811;28;20128;-51
2022/08/15 11:38:30;;;;;;;3.08;1.60;;;;;;;41.30;12.62;99384.31;5059447;28;20052;-49
2022/08/15 11:40:59;;;;;;;1.77;1.50;;;;;;;39.66;14.89;99379.78;5077497;28;20441;-49
2022/08/15 11:43:26;;;;;;;2.90;2.08;;;;;;;39.35;14.37;99392.91;5075848;28;20033;-50
2022/08/15 11:45:54;;;;;;;3.35;1.70;;;;;;;39.59;13.79;99393.91;5077312;28;20473;-49
2022/08/15 11:48:26;;;;;;;8.18;2.35;;;;;;;39.87;13.91;99393.56;5075914;28;20484;-48
2022/08/15 11:51:05;;;;;;;3.25;2.00;;;;;;;39.80;14.35;99390.03;5076780;28;20048;-49
2022/08/15 11:53:35;;;;;;;6.75;2.30;;;;;;;39.94;14.78;99394.75;5042561;28;20404;-49
2022/08/15 11:56:01;;;;;;;1.85;1.75;;;;;;;40.05;14.56;99387.75;5059156;28;20029;-47
2022/08/15 11:58:32;;;;;;;9.95;2.40;;;;;;;40.26;13.96;99386.66;5078216;28;20029;-49
2022/08/15 12:01:18;;;;;;;4.05;2.53;;;;;;;40.88;14.04;99383.00;5079892;28;20431;-51
2022/08/15 12:03:59;;;;;;;5.38;2.20;;;;;;;40.80;13.61;99387.97;5076013;28;20123;-50
2022/08/15 12:06:30;;;;;;;5.55;2.35;;;;;;;40.79;14.00;99395.63;5057864;28;20021;-49
2022/08/15 12:09:08;;;;;;;5.28;2.78;;;;;;;40.78;14.17;99401.66;5074722;28;20119;-51